Time;durP1;ratioP1;P1;durP2;ratioP2;P2;SDS_P1;SDS_P2;PMS_P1;PMS_P2;Temp;Humidity;BMP_temperature;BMP_pressure;BME280_temperature;BME280_humidity;BME280_pressure;Samples;Min_cycle;Max_cycle;Signal;HPM_P1;HPM_P2
2022/05/13 00:00:53;;;;;;;7.13;5.70;;;18.60;99.90;;;;;;5015314;28;20190;-61
2022/05/13 00:03:19;;;;;;;8.90;5.53;;;18.50;99.90;;;;;;5015185;28;20208;-59
2022/05/13 00:05:44;;;;;;;8.90;5.70;;;18.40;99.90;;;;;;5014774;28;20203;-60
2022/05/13 00:08:10;;;;;;;8.43;6.03;;;18.20;99.90;;;;;;5015025;28;20537;-60
2022/05/13 00:10:36;;;;;;;5.90;5.30;;;18.10;99.90;;;;;;5014985;28;20184;-57
2022/05/13 00:13:02;;;;;;;8.33;5.80;;;18.00;99.90;;;;;;5014840;28;20551;-59
2022/05/13 00:15:29;;;;;;;6.30;5.70;;;17.90;99.90;;;;;;5014672;28;20220;-59
2022/05/13 00:17:55;;;;;;;8.27;5.40;;;17.90;99.90;;;;;;5014880;28;20176;-62
2022/05/13 00:20:21;;;;;;;8.43;6.13;;;17.80;99.90;;;;;;5014914;28;20179;-58
2022/05/13 00:22:53;;;;;;;8.93;6.93;;;17.70;99.90;;;;;;5014658;28;20181;-60
2022/05/13 00:25:21;;;;;;;7.27;6.20;;;17.50;99.90;;;;;;5014379;28;20224;-58
2022/05/13 00:27:48;;;;;;;8.10;7.10;;;17.50;99.90;;;;;;5014692;28;20228;-58
2022/05/13 00:30:14;;;;;;;7.97;6.83;;;17.60;99.90;;;;;;5014736;28;20176;-59
2022/05/13 00:32:40;;;;;;;7.47;6.67;;;17.60;99.90;;;;;;5014017;28;20177;-60
2022/05/13 00:35:07;;;;;;;7.80;6.20;;;17.60;99.90;;;;;;5014260;28;20247;-60
2022/05/13 00:37:33;;;;;;;6.70;6.00;;;17.60;99.90;;;;;;5014672;28;20712;-60
2022/05/13 00:39:59;;;;;;;7.30;6.20;;;17.60;99.90;;;;;;5014392;28;20172;-59
2022/05/13 00:42:25;;;;;;;8.43;6.97;;;17.60;99.90;;;;;;5013320;28;20264;-58
2022/05/13 00:44:51;;;;;;;8.37;6.50;;;17.50;99.90;;;;;;5014118;28;20192;-60
2022/05/13 00:47:18;;;;;;;6.67;6.00;;;17.50;99.90;;;;;;5014285;28;20235;-60
2022/05/13 00:49:43;;;;;;;7.27;6.53;;;17.50;99.90;;;;;;5014424;28;20192;-60
2022/05/13 00:52:10;;;;;;;7.33;6.17;;;17.40;99.90;;;;;;5014225;28;20650;-60
2022/05/13 00:54:37;;;;;;;8.17;5.50;;;17.40;99.90;;;;;;5012534;28;20232;-59
2022/05/13 00:57:04;;;;;;;5.77;4.90;;;17.40;99.90;;;;;;5014012;28;20260;-59
2022/05/13 00:59:33;;;;;;;6.03;5.40;;;17.40;99.90;;;;;;5014276;28;20180;-60
2022/05/13 01:01:58;;;;;;;5.30;4.80;;;17.40;99.90;;;;;;5014037;28;20180;-60
2022/05/13 01:04:26;;;;;;;6.97;5.37;;;17.40;99.90;;;;;;5013761;28;20209;-60
2022/05/13 01:06:54;;;;;;;5.97;5.33;;;17.50;99.90;;;;;;5013936;28;20212;-60
2022/05/13 01:09:22;;;;;;;7.60;5.33;;;17.50;99.90;;;;;;5014005;28;20185;-60
2022/05/13 01:11:52;;;;;;;5.07;4.57;;;17.70;99.90;;;;;;5013753;28;20652;-60
2022/05/13 01:14:33;;;;;;;6.60;4.60;;;17.70;99.90;;;;;;5013442;28;20207;-60
2022/05/13 01:20:13;;;;;;;5.27;4.77;;;17.90;99.90;;;;;;5014091;28;20235;-60
2022/05/13 01:22:51;;;;;;;6.23;5.10;;;18.00;99.90;;;;;;5013622;28;20178;-60
2022/05/13 01:25:20;;;;;;;5.30;4.80;;;18.20;99.90;;;;;;5013263;28;20666;-61
2022/05/13 01:27:48;;;;;;;5.00;4.50;;;18.10;99.90;;;;;;5013624;28;20181;-60
2022/05/13 01:30:20;;;;;;;5.53;4.63;;;18.20;99.90;;;;;;5013486;28;20178;-60
2022/05/13 01:32:46;;;;;;;6.20;5.03;;;18.30;99.90;;;;;;5013378;28;20213;-59
2022/05/13 01:35:13;;;;;;;5.87;4.97;;;18.30;99.90;;;;;;5013284;28;20233;-60
2022/05/13 01:37:39;;;;;;;6.33;4.93;;;18.40;99.90;;;;;;5013494;28;20709;-60
2022/05/13 01:40:06;;;;;;;4.40;4.00;;;18.40;99.90;;;;;;5013417;28;20179;-60
2022/05/13 01:42:33;;;;;;;5.20;4.57;;;18.40;99.90;;;;;;5012963;28;20182;-61
2022/05/13 01:44:59;;;;;;;7.73;4.87;;;18.40;99.90;;;;;;5012159;28;20203;-60
2022/05/13 01:47:25;;;;;;;5.03;3.97;;;18.50;99.90;;;;;;5013254;28;20182;-60
2022/05/13 01:49:52;;;;;;;4.83;4.23;;;18.50;99.90;;;;;;5013388;28;20174;-61
2022/05/13 01:52:18;;;;;;;5.93;4.50;;;18.50;99.90;;;;;;5012941;28;20648;-60
2022/05/13 01:54:43;;;;;;;4.77;4.37;;;18.50;99.90;;;;;;5012789;28;20190;-61
2022/05/13 01:57:09;;;;;;;5.07;4.57;;;18.50;99.90;;;;;;5012857;28;20182;-61
2022/05/13 01:59:34;;;;;;;5.87;5.27;;;18.40;99.90;;;;;;5013107;28;20644;-60
2022/05/13 02:02:00;;;;;;;5.47;4.97;;;18.40;99.90;;;;;;5012885;28;20264;-59
2022/05/13 02:04:26;;;;;;;5.13;4.63;;;18.20;99.90;;;;;;5011411;28;20357;-61
2022/05/13 02:06:51;;;;;;;5.70;5.10;;;18.20;99.90;;;;;;5012854;28;20206;-61
2022/05/13 02:09:17;;;;;;;5.20;4.70;;;18.10;99.90;;;;;;5012883;28;20258;-60
2022/05/13 02:11:45;;;;;;;6.33;5.30;;;18.20;99.90;;;;;;5012635;28;20257;-61
2022/05/13 02:14:15;;;;;;;7.23;5.40;;;18.10;99.90;;;;;;5012119;28;20211;-61
2022/05/13 02:16:41;;;;;;;6.87;5.30;;;18.10;99.90;;;;;;5012783;28;20233;-61
2022/05/13 02:19:07;;;;;;;7.90;5.63;;;18.20;99.90;;;;;;5012634;28;20177;-61
2022/05/13 02:21:33;;;;;;;5.87;5.17;;;18.20;99.90;;;;;;5012475;28;20544;-59
2022/05/13 02:23:58;;;;;;;7.03;4.87;;;18.30;99.90;;;;;;5012427;28;20182;-59
2022/05/13 02:26:24;;;;;;;5.87;4.90;;;18.30;99.90;;;;;;5012478;28;20586;-59
2022/05/13 02:28:50;;;;;;;5.13;4.63;;;18.40;99.90;;;;;;5012606;28;20177;-60
2022/05/13 02:31:16;;;;;;;5.77;4.80;;;18.30;99.90;;;;;;5012456;28;20541;-59
2022/05/13 02:33:42;;;;;;;5.27;4.50;;;18.40;99.90;;;;;;5011798;28;20177;-60
2022/05/13 02:36:09;;;;;;;6.87;5.10;;;18.30;99.90;;;;;;5012322;28;20202;-60
2022/05/13 02:38:35;;;;;;;6.07;5.23;;;18.30;99.90;;;;;;5012379;28;20175;-59
2022/05/13 02:41:13;;;;;;;7.23;5.47;;;18.30;99.90;;;;;;5012172;28;20215;-60
2022/05/13 02:43:53;;;;;;;5.43;4.67;;;18.30;99.90;;;;;;5010933;28;20201;-60
2022/05/13 02:46:24;;;;;;;5.10;4.60;;;18.40;99.90;;;;;;5012083;28;20289;-59
2022/05/13 02:48:50;;;;;;;5.50;4.70;;;18.30;99.90;;;;;;5012411;28;20558;-60
2022/05/13 02:51:17;;;;;;;9.40;5.37;;;18.40;99.90;;;;;;5009209;28;20271;-59
2022/05/13 02:53:42;;;;;;;5.70;4.93;;;18.30;99.90;;;;;;5010442;28;20671;-60
2022/05/13 02:56:08;;;;;;;5.77;5.10;;;18.20;99.90;;;;;;5011624;28;20210;-61
2022/05/13 02:58:35;;;;;;;7.70;5.20;;;18.20;99.90;;;;;;5012119;28;20577;-61
2022/05/13 03:01:02;;;;;;;9.10;5.50;;;18.20;99.90;;;;;;5012058;28;20177;-60
2022/05/13 03:03:29;;;;;;;5.70;5.03;;;18.30;99.90;;;;;;5011563;28;20704;-60
2022/05/13 03:05:55;;;;;;;6.40;5.43;;;18.20;99.90;;;;;;5011697;28;20202;-60
2022/05/13 03:08:21;;;;;;;7.03;5.20;;;18.30;99.90;;;;;;5012082;28;20181;-61
2022/05/13 03:10:46;;;;;;;7.63;5.13;;;18.20;99.90;;;;;;5011967;28;20181;-61
2022/05/13 03:13:13;;;;;;;6.40;5.43;;;18.20;99.90;;;;;;5011769;28;20642;-60
2022/05/13 03:15:39;;;;;;;6.93;5.47;;;18.20;99.90;;;;;;5011581;28;20217;-59
2022/05/13 03:18:05;;;;;;;9.47;6.23;;;18.10;99.90;;;;;;5011790;28;20766;-59
2022/05/13 03:20:30;;;;;;;6.47;5.63;;;18.00;99.90;;;;;;5011721;28;20271;-60
2022/05/13 03:22:56;;;;;;;6.23;5.60;;;17.90;99.90;;;;;;5011326;28;20654;-60
2022/05/13 03:25:22;;;;;;;11.83;6.03;;;17.90;99.90;;;;;;5011439;28;20208;-59
2022/05/13 03:27:48;;;;;;;8.97;6.63;;;18.00;99.90;;;;;;5011736;28;20258;-60
2022/05/13 03:30:16;;;;;;;6.70;5.97;;;18.00;99.90;;;;;;5011824;28;20180;-59
2022/05/13 03:32:42;;;;;;;7.90;6.70;;;17.90;99.90;;;;;;5011389;28;20177;-58
2022/05/13 03:35:11;;;;;;;6.73;5.40;;;17.90;99.90;;;;;;5011104;28;20688;-59
2022/05/13 03:37:36;;;;;;;7.10;6.43;;;17.90;99.90;;;;;;5011618;28;20173;-59
2022/05/13 03:40:03;;;;;;;6.97;6.07;;;17.80;99.90;;;;;;5011759;28;20207;-58
2022/05/13 03:42:29;;;;;;;8.03;6.23;;;17.80;99.90;;;;;;5011487;28;20200;-57
2022/05/13 03:44:55;;;;;;;6.87;6.17;;;17.80;99.90;;;;;;5010949;28;20200;-59
2022/05/13 03:47:21;;;;;;;7.83;6.17;;;17.80;99.90;;;;;;5011505;28;20582;-58
2022/05/13 03:49:47;;;;;;;9.53;7.00;;;17.90;99.90;;;;;;5011572;28;20174;-60
2022/05/13 03:52:13;;;;;;;8.00;6.30;;;17.90;99.90;;;;;;5011358;28;20177;-59
2022/05/13 03:54:39;;;;;;;8.43;6.87;;;17.90;99.90;;;;;;5010868;28;20601;-59
2022/05/13 03:57:07;;;;;;;7.17;6.47;;;17.70;99.90;;;;;;5011547;28;20243;-59
2022/05/13 03:59:33;;;;;;;7.10;6.20;;;17.60;99.90;;;;;;5011546;28;20258;-59
2022/05/13 04:02:00;;;;;;;13.90;8.70;;;17.50;99.90;;;;;;5011187;28;20191;-60
2022/05/13 04:04:29;;;;;;;8.07;7.10;;;17.40;99.90;;;;;;5010798;28;20689;-59
2022/05/13 04:09:42;;;;;;;8.63;7.00;;;17.40;99.90;;;;;;5015265;28;20179;-59
2022/05/13 04:17:37;;;;;;;9.07;8.00;;;17.40;99.90;;;;;;5014914;28;20206;-56
2022/05/13 04:20:04;;;;;;;8.53;7.40;;;17.50;99.90;;;;;;5016317;28;20211;-60
2022/05/13 04:22:31;;;;;;;13.07;9.10;;;17.40;99.90;;;;;;5014693;28;20203;-62
2022/05/13 04:24:57;;;;;;;9.03;7.63;;;17.50;99.90;;;;;;5014079;28;20224;-60
2022/05/13 04:27:22;;;;;;;8.63;7.83;;;17.50;99.90;;;;;;5015140;28;20664;-61
2022/05/13 04:29:48;;;;;;;8.70;7.80;;;17.60;99.90;;;;;;5014766;28;20164;-62
2022/05/13 04:32:13;;;;;;;9.37;7.53;;;17.60;99.90;;;;;;5014388;28;20173;-62
2022/05/13 04:34:39;;;;;;;8.23;7.47;;;17.60;99.90;;;;;;5014205;28;20280;-59
2022/05/13 04:37:04;;;;;;;8.70;7.90;;;17.70;99.90;;;;;;4996681;28;20549;-59
2022/05/13 04:39:30;;;;;;;12.43;7.30;;;17.70;99.90;;;;;;5013904;28;20200;-58
2022/05/13 04:44:40;;;;;;;10.87;9.33;;;17.70;99.90;;;;;;5014318;28;20228;-57
2022/05/13 04:48:15;;;;;;;9.63;8.73;;;17.70;99.90;;;;;;5013858;28;20361;-58
2022/05/13 04:49:52;;;;;;;9.83;8.83;;;17.60;99.90;;;;;;5013851;28;20195;-59
2022/05/13 04:52:17;;;;;;;11.00;8.93;;;17.50;99.90;;;;;;5014003;28;20180;-63
2022/05/13 04:54:43;;;;;;;9.57;8.67;;;17.40;99.90;;;;;;5013879;28;20232;-62
2022/05/13 04:57:08;;;;;;;9.47;8.57;;;17.50;99.90;;;;;;5013865;28;20255;-59
2022/05/13 04:59:34;;;;;;;9.60;8.60;;;17.50;99.90;;;;;;5014246;28;20224;-63
2022/05/13 05:02:00;;;;;;;8.17;7.20;;;17.60;99.90;;;;;;5013780;28;20174;-59
2022/05/13 05:04:25;;;;;;;8.17;7.37;;;17.70;99.90;;;;;;5013538;28;20236;-62
2022/05/13 05:06:51;;;;;;;8.90;8.00;;;17.70;99.90;;;;;;5013502;28;20208;-61
2022/05/13 05:09:16;;;;;;;9.67;8.13;;;17.70;99.90;;;;;;5014387;28;20204;-62
2022/05/13 05:11:42;;;;;;;12.40;9.50;;;17.70;99.90;;;;;;5013966;28;20182;-58
2022/05/13 05:14:07;;;;;;;10.13;8.77;;;17.70;99.90;;;;;;5013485;28;20200;-62
2022/05/13 05:16:33;;;;;;;12.10;10.70;;;17.60;99.90;;;;;;5013460;28;20272;-61
2022/05/13 05:18:59;;;;;;;10.67;9.63;;;17.50;99.90;;;;;;5013549;28;20174;-58
2022/05/13 05:21:25;;;;;;;10.10;9.10;;;17.60;99.90;;;;;;5013609;28;20881;-62
2022/05/13 05:23:51;;;;;;;9.77;8.83;;;17.60;99.90;;;;;;5013497;28;20170;-61
2022/05/13 05:26:18;;;;;;;10.07;9.03;;;17.60;99.90;;;;;;5012287;28;20240;-60
2022/05/13 05:28:44;;;;;;;9.63;8.73;;;17.60;99.90;;;;;;5028630;28;20182;-62
2022/05/13 05:31:12;;;;;;;9.60;8.67;;;17.60;99.90;;;;;;5031211;28;20168;-60
2022/05/13 05:33:38;;;;;;;9.57;8.57;;;17.70;99.90;;;;;;5013092;28;20164;-61
2022/05/13 05:36:04;;;;;;;10.13;8.77;;;17.70;99.90;;;;;;5013447;28;20562;-60
2022/05/13 05:38:30;;;;;;;9.70;8.67;;;17.70;99.90;;;;;;5012601;28;20183;-59
2022/05/13 05:40:58;;;;;;;10.23;9.10;;;17.70;99.90;;;;;;5013313;28;20183;-58
2022/05/13 05:43:24;;;;;;;9.13;8.23;;;17.80;99.90;;;;;;5012966;28;20228;-59
2022/05/13 05:45:50;;;;;;;9.53;8.53;;;17.90;99.90;;;;;;5013112;28;20680;-60
2022/05/13 05:48:23;;;;;;;11.23;9.10;;;18.10;99.90;;;;;;5012047;28;20179;-61
2022/05/13 05:50:51;;;;;;;9.93;9.03;;;18.00;99.90;;;;;;5028284;28;20171;-62
2022/05/13 05:57:13;;;;;;;9.67;8.27;;;17.90;99.90;;;;;;5030567;28;20170;-59
2022/05/13 05:58:47;;;;;;;9.93;8.80;;;17.90;99.90;;;;;;5012581;28;20197;-62
2022/05/13 06:01:13;;;;;;;10.30;9.30;;;17.90;99.90;;;;;;5012507;28;20179;-60
2022/05/13 06:03:39;;;;;;;11.50;10.40;;;17.90;99.90;;;;;;5012679;28;20261;-62
2022/05/13 06:06:05;;;;;;;11.60;10.50;;;17.90;99.90;;;;;;5012233;28;20293;-61
2022/05/13 06:08:31;;;;;;;10.73;9.73;;;17.80;99.90;;;;;;5011717;28;20177;-61
2022/05/13 06:10:57;;;;;;;10.63;9.50;;;17.90;99.90;;;;;;5012689;28;20184;-61
2022/05/13 06:13:22;;;;;;;11.10;10.10;;;18.00;99.90;;;;;;5011986;28;20189;-63
2022/05/13 06:15:48;;;;;;;12.50;10.67;;;18.10;99.90;;;;;;5011519;28;20293;-61
2022/05/13 06:18:13;;;;;;;12.17;10.97;;;18.20;99.90;;;;;;5028653;28;20186;-62
2022/05/13 06:20:40;;;;;;;11.23;10.17;;;18.20;99.90;;;;;;5032543;28;20175;-62
2022/05/13 06:23:06;;;;;;;11.70;10.70;;;18.10;99.90;;;;;;5027557;28;20461;-61
2022/05/13 06:25:31;;;;;;;11.07;9.97;;;18.20;99.90;;;;;;5012332;28;20779;-62
2022/05/13 06:28:00;;;;;;;10.93;9.50;;;18.30;99.90;;;;;;5012519;28;20172;-62
2022/05/13 06:30:29;;;;;;;12.43;10.43;;;18.50;99.90;;;;;;5011778;28;20165;-62
2022/05/13 06:32:56;;;;;;;11.27;10.27;;;18.60;99.90;;;;;;5012236;28;20657;-60
2022/05/13 06:35:24;;;;;;;10.60;9.60;;;18.50;99.90;;;;;;5012110;28;20828;-60
2022/05/13 06:37:51;;;;;;;13.10;10.50;;;18.50;99.90;;;;;;5012998;28;20511;-60
2022/05/13 06:40:17;;;;;;;10.63;9.63;;;18.40;99.90;;;;;;5015744;28;20165;-62
2022/05/13 06:42:42;;;;;;;11.73;10.63;;;18.30;99.90;;;;;;5014976;28;20352;-61
2022/05/13 06:45:09;;;;;;;11.33;10.33;;;18.30;99.90;;;;;;5014648;28;20279;-62
2022/05/13 06:47:35;;;;;;;11.97;10.77;;;18.30;99.90;;;;;;5014975;28;20208;-63
2022/05/13 06:50:06;;;;;;;12.63;11.30;;;18.20;99.90;;;;;;5014721;28;20177;-62
2022/05/13 06:52:32;;;;;;;11.93;10.83;;;18.20;99.90;;;;;;5012870;28;20256;-58
2022/05/13 06:54:57;;;;;;;12.03;11.00;;;18.30;99.90;;;;;;5011206;28;20276;-61
2022/05/13 06:57:23;;;;;;;11.20;10.20;;;18.30;99.90;;;;;;5011598;28;20246;-61
2022/05/13 06:59:49;;;;;;;11.73;10.63;;;18.40;99.90;;;;;;5011294;28;20855;-60
2022/05/13 07:02:18;;;;;;;12.40;11.20;;;18.40;99.90;;;;;;5011377;28;20177;-59
2022/05/13 07:04:47;;;;;;;11.17;10.17;;;18.50;99.90;;;;;;5009137;28;20721;-62
2022/05/13 07:07:13;;;;;;;13.30;11.20;;;18.50;99.90;;;;;;5011456;28;20231;-62
2022/05/13 07:09:39;;;;;;;12.83;11.63;;;18.50;99.90;;;;;;4993691;28;20192;-62
2022/05/13 07:12:06;;;;;;;12.70;11.00;;;18.50;99.90;;;;;;5011037;28;20203;-62
2022/05/13 07:14:34;;;;;;;11.93;10.67;;;18.60;99.90;;;;;;5011253;28;20261;-60
2022/05/13 07:17:00;;;;;;;11.67;10.47;;;18.80;99.90;;;;;;5002100;28;20179;-60
2022/05/13 07:19:26;;;;;;;12.17;10.97;;;19.20;99.90;;;;;;5011533;28;20177;-59
2022/05/13 07:21:52;;;;;;;11.83;10.63;;;19.00;99.90;;;;;;5010905;28;20184;-61
2022/05/13 07:24:17;;;;;;;10.57;9.57;;;19.10;99.90;;;;;;5011020;28;20177;-60
2022/05/13 07:26:43;;;;;;;10.67;9.60;;;19.30;99.90;;;;;;5011699;28;20196;-63
2022/05/13 07:29:09;;;;;;;10.83;9.73;;;19.50;99.90;;;;;;5011309;28;20184;-60
2022/05/13 07:31:35;;;;;;;8.93;8.13;;;19.60;99.90;;;;;;5010840;28;20248;-60
2022/05/13 07:34:01;;;;;;;10.43;7.70;;;19.60;99.90;;;;;;5008344;28;20169;-62
2022/05/13 07:36:27;;;;;;;7.67;6.97;;;19.50;99.90;;;;;;5011349;28;20176;-61
2022/05/13 07:41:48;;;;;;;6.80;5.87;;;19.20;99.90;;;;;;4912149;29;20307;-60
2022/05/13 07:44:15;;;;;;;6.53;5.80;;;19.30;99.90;;;;;;4915360;29;20272;-62
2022/05/13 07:46:41;;;;;;;6.37;5.87;;;19.40;99.90;;;;;;4913492;29;20235;-62
2022/05/13 07:49:08;;;;;;;6.30;5.67;;;19.70;99.90;;;;;;4916170;29;20262;-64
2022/05/13 07:51:34;;;;;;;6.07;5.57;;;19.80;99.90;;;;;;4915670;29;20192;-61
2022/05/13 07:53:59;;;;;;;8.47;5.33;;;19.70;99.90;;;;;;4915699;29;20187;-56
2022/05/13 07:56:25;;;;;;;6.70;5.60;;;19.60;99.90;;;;;;4916040;29;20176;-63
2022/05/13 07:58:51;;;;;;;6.43;5.80;;;19.60;99.90;;;;;;4916127;29;20195;-61
2022/05/13 08:01:17;;;;;;;5.57;5.07;;;19.70;99.90;;;;;;4915944;29;20180;-57
2022/05/13 08:03:43;;;;;;;5.27;4.67;;;19.70;99.90;;;;;;4915402;29;20267;-59
2022/05/13 08:06:09;;;;;;;5.77;5.10;;;19.70;99.90;;;;;;4916347;29;20303;-64
2022/05/13 08:08:41;;;;;;;5.03;4.63;;;19.70;99.90;;;;;;4916543;29;20212;-62
2022/05/13 08:11:10;;;;;;;4.93;4.53;;;19.50;99.90;;;;;;4916159;29;20184;-62
2022/05/13 08:13:37;;;;;;;5.83;4.67;;;19.30;99.90;;;;;;4915733;29;20176;-60
2022/05/13 08:16:11;;;;;;;5.27;4.77;;;19.00;99.90;;;;;;4916078;29;20278;-61
2022/05/13 08:18:37;;;;;;;5.67;4.70;;;18.90;99.90;;;;;;4982435;28;20271;-57
2022/05/13 08:21:03;;;;;;;10.93;5.07;;;18.80;99.90;;;;;;5014268;28;20261;-62
2022/05/13 08:23:28;;;;;;;6.27;4.63;;;18.80;99.90;;;;;;5014346;28;20267;-61
2022/05/13 08:25:54;;;;;;;5.90;5.17;;;18.80;99.90;;;;;;5014514;28;20392;-58
2022/05/13 08:28:22;;;;;;;8.53;4.87;;;18.80;99.90;;;;;;5014616;28;20598;-59
2022/05/13 08:30:48;;;;;;;7.77;5.00;;;18.80;99.90;;;;;;5014258;28;20677;-62
2022/05/13 08:33:13;;;;;;;6.30;5.37;;;18.80;99.90;;;;;;4995707;28;20181;-61
2022/05/13 08:35:44;;;;;;;5.40;4.90;;;18.90;99.90;;;;;;5014333;28;20197;-60
2022/05/13 08:38:10;;;;;;;4.80;4.37;;;19.00;99.90;;;;;;5014490;28;20173;-61
2022/05/13 08:40:50;;;;;;;4.20;3.80;;;19.20;99.90;;;;;;5014561;28;20248;-62
2022/05/13 08:43:21;;;;;;;4.60;4.20;;;19.40;99.90;;;;;;5014097;28;20179;-63
2022/05/13 08:45:59;;;;;;;5.77;3.97;;;19.60;99.90;;;;;;5013918;28;20212;-62
2022/05/13 08:48:47;;;;;;;3.97;3.67;;;19.70;99.90;;;;;;5014511;28;20172;-62
2022/05/13 08:51:41;;;;;;;4.63;3.80;;;19.70;99.90;;;;;;5014307;28;20183;-62
2022/05/13 08:54:20;;;;;;;3.83;3.30;;;19.60;99.90;;;;;;5015770;28;20176;-60
2022/05/13 08:56:53;;;;;;;4.13;3.37;;;19.70;99.90;;;;;;5013769;28;20584;-62
2022/05/13 08:59:27;;;;;;;4.00;3.60;;;20.00;99.90;;;;;;5017381;28;20188;-59
2022/05/13 09:02:10;;;;;;;4.07;2.90;;;20.20;99.90;;;;;;5017874;28;20187;-63
2022/05/13 09:04:38;;;;;;;4.85;3.08;;;20.50;99.90;;;;;;5002921;28;20227;-63
2022/05/13 09:07:14;;;;;;;3.80;3.17;;;20.80;99.90;;;;;;5015545;28;20204;-63
2022/05/13 09:09:43;;;;;;;3.07;2.77;;;20.80;99.90;;;;;;5003763;28;20200;-63
2022/05/13 09:12:14;;;;;;;3.47;3.10;;;20.70;99.90;;;;;;5013429;28;20239;-61
2022/05/13 09:14:52;;;;;;;3.27;2.50;;;20.50;99.90;;;;;;5010817;28;20204;-61
2022/05/13 09:17:26;;;;;;;6.13;3.20;;;20.80;99.90;;;;;;5013433;28;20184;-63
2022/05/13 09:19:58;;;;;;;3.97;3.35;;;21.00;99.90;;;;;;5013500;28;20200;-64
2022/05/13 09:22:32;;;;;;;6.43;3.13;;;21.00;99.90;;;;;;5010808;28;20174;-63
2022/05/13 09:24:57;;;;;;;5.60;3.10;;;21.10;99.90;;;;;;5012318;28;20566;-59
2022/05/13 09:27:23;;;;;;;3.33;2.92;;;21.30;99.90;;;;;;5013211;28;20198;-62
2022/05/13 09:29:49;;;;;;;3.40;3.10;;;21.40;99.90;;;;;;5013160;28;20172;-62
2022/05/13 09:32:26;;;;;;;3.55;3.20;;;21.50;99.90;;;;;;5013162;28;20246;-60
2022/05/13 09:35:15;;;;;;;4.97;3.15;;;21.40;99.90;;;;;;5011096;28;20216;-62
2022/05/13 09:37:43;;;;;;;3.60;3.25;;;21.50;99.90;;;;;;5013459;28;20180;-62
2022/05/13 09:40:16;;;;;;;3.55;3.25;;;21.70;99.90;;;;;;5013552;28;20176;-62
2022/05/13 09:42:48;;;;;;;3.50;2.90;;;21.60;99.90;;;;;;5013225;28;20597;-62
2022/05/13 09:45:21;;;;;;;3.75;3.10;;;21.60;99.90;;;;;;5012278;28;20196;-61
2022/05/13 09:47:58;;;;;;;3.80;3.15;;;21.60;99.90;;;;;;5010371;28;20182;-62
2022/05/13 09:50:31;;;;;;;5.20;3.08;;;21.60;99.90;;;;;;5012630;28;20226;-59
2022/05/13 09:53:22;;;;;;;3.33;3.10;;;21.50;99.90;;;;;;5012600;28;20171;-58
2022/05/13 09:55:51;;;;;;;3.38;3.00;;;21.30;99.90;;;;;;5009871;28;20203;-61
2022/05/13 09:58:18;;;;;;;3.05;2.85;;;21.00;99.90;;;;;;5012340;28;20257;-60
2022/05/13 10:00:46;;;;;;;3.53;3.03;;;21.00;99.90;;;;;;5012490;28;20648;-60
2022/05/13 10:03:29;;;;;;;4.60;3.22;;;21.10;99.90;;;;;;5012329;28;20174;-62
2022/05/13 10:06:16;;;;;;;3.50;3.20;;;21.20;99.90;;;;;;5009936;28;20687;-63
2022/05/13 10:13:57;;;;;;;4.28;2.65;;;21.30;99.90;;;;;;5011865;28;20179;-62
2022/05/13 10:14:37;;;;;;;3.17;2.97;;;21.00;99.90;;;;;;5012539;28;20216;-60
2022/05/13 10:17:20;;;;;;;3.90;2.92;;;20.90;99.90;;;;;;5015390;28;20231;-62
2022/05/13 10:19:52;;;;;;;2.97;2.72;;;21.00;99.90;;;;;;5012367;28;20220;-63
2022/05/13 10:22:46;;;;;;;2.80;2.60;;;21.10;99.90;;;;;;5014039;28;20178;-62
2022/05/13 10:25:16;;;;;;;4.07;3.00;;;21.10;99.90;;;;;;5012332;28;20204;-62
2022/05/13 10:28:12;;;;;;;2.90;2.70;;;21.00;99.90;;;;;;5017850;28;20237;-62
2022/05/13 10:30:41;;;;;;;3.58;3.28;;;21.00;99.90;;;;;;4916573;29;20192;-62
2022/05/13 10:33:18;;;;;;;3.33;3.10;;;21.00;99.90;;;;;;4928437;29;20364;-62
2022/05/13 10:35:56;;;;;;;3.60;3.08;;;21.00;99.90;;;;;;4921472;29;20789;-62
2022/05/13 10:38:27;;;;;;;3.63;3.28;;;21.30;99.90;;;;;;4918408;29;20281;-62
2022/05/13 10:40:56;;;;;;;3.33;3.10;;;21.40;99.90;;;;;;4928720;29;20212;-60
2022/05/13 10:43:44;;;;;;;3.40;3.10;;;21.50;99.90;;;;;;4919038;29;20187;-59
2022/05/13 10:46:44;;;;;;;3.28;2.92;;;21.60;99.90;;;;;;4956264;23;21315;-61
2022/05/13 10:49:11;;;;;;;4.05;3.65;;;21.80;99.90;;;;;;4990411;28;20180;-61
2022/05/13 10:51:49;;;;;;;3.60;3.30;;;21.80;99.90;;;;;;4998074;28;20176;-61
2022/05/13 10:54:20;;;;;;;3.90;3.60;;;21.60;99.90;;;;;;5004798;28;20649;-58
2022/05/13 10:56:53;;;;;;;3.88;3.50;;;21.50;99.90;;;;;;4995298;28;20297;-60
2022/05/13 10:59:39;;;;;;;3.92;3.50;;;21.30;99.90;;;;;;5007102;28;20167;-59
2022/05/13 11:02:38;;;;;;;4.35;3.92;;;21.10;99.90;;;;;;5002745;28;20189;-59
2022/05/13 11:05:10;;;;;;;4.00;3.67;;;20.90;99.90;;;;;;5006167;28;20240;-58
2022/05/13 11:08:00;;;;;;;4.78;4.30;;;20.80;99.90;;;;;;5005771;28;20223;-61
2022/05/13 11:10:52;;;;;;;4.00;3.70;;;21.00;99.90;;;;;;4990935;28;20187;-59
2022/05/13 11:13:35;;;;;;;3.80;3.50;;;21.40;99.90;;;;;;4981862;28;20188;-61
2022/05/13 11:16:07;;;;;;;5.07;3.63;;;21.60;99.90;;;;;;4992056;28;20181;-60
2022/05/13 11:18:48;;;;;;;4.45;4.05;;;21.70;99.90;;;;;;4991058;28;20185;-60
2022/05/13 11:21:50;;;;;;;6.65;4.10;;;21.60;99.90;;;;;;4991198;28;20715;-59
2022/05/13 11:27:57;;;;;;;4.40;4.00;;;21.30;99.90;;;;;;4992095;28;20244;-61
2022/05/13 11:30:34;;;;;;;4.63;3.92;;;21.00;99.90;;;;;;4913007;29;20373;-60
2022/05/13 11:33:21;;;;;;;4.72;4.30;;;20.90;99.90;;;;;;4908112;29;20690;-60
2022/05/13 11:36:04;;;;;;;3.85;3.55;;;21.10;99.90;;;;;;4893558;29;20262;-60
2022/05/13 11:38:32;;;;;;;7.07;3.90;;;21.20;99.90;;;;;;4891975;29;20177;-61
2022/05/13 11:41:05;;;;;;;3.95;3.65;;;21.20;99.90;;;;;;4893494;29;20187;-55
2022/05/13 11:43:30;;;;;;;6.78;3.60;;;21.40;99.90;;;;;;4897463;29;20175;-58
2022/05/13 11:46:01;;;;;;;5.53;4.40;;;21.40;99.90;;;;;;4894344;29;20226;-59
2022/05/13 11:48:39;;;;;;;10.80;4.40;;;21.10;99.90;;;;;;4893282;29;20280;-57
2022/05/13 11:51:27;;;;;;;6.25;4.20;;;21.10;99.90;;;;;;4893328;29;20220;-59
2022/05/13 11:53:59;;;;;;;5.85;4.22;;;21.10;99.90;;;;;;4893351;29;20190;-60
2022/05/13 11:56:30;;;;;;;5.00;4.57;;;21.10;99.90;;;;;;4893344;29;20241;-61
2022/05/13 11:59:41;;;;;;;5.10;4.35;;;21.00;99.90;;;;;;4893197;29;20307;-58
2022/05/13 12:02:30;;;;;;;5.13;4.72;;;20.70;99.90;;;;;;4845802;29;20199;-59
2022/05/13 12:05:17;;;;;;;5.57;4.95;;;20.50;99.90;;;;;;4844759;29;20191;-59
2022/05/13 12:08:01;;;;;;;10.32;5.15;;;20.70;99.90;;;;;;4909899;29;20246;-59
2022/05/13 12:10:53;;;;;;;5.47;4.47;;;20.90;99.90;;;;;;4940626;29;20540;-57
2022/05/13 12:13:56;;;;;;;5.03;4.63;;;21.10;99.90;;;;;;4930127;29;20201;-56
2022/05/13 12:16:36;;;;;;;5.47;4.97;;;21.40;99.90;;;;;;4938571;29;20722;-61
2022/05/13 12:19:19;;;;;;;5.82;5.20;;;21.60;99.90;;;;;;4931345;29;20277;-60
2022/05/13 12:22:09;;;;;;;5.18;4.68;;;21.60;99.90;;;;;;4930404;29;20242;-60
2022/05/13 12:24:56;;;;;;;5.30;4.80;;;21.50;99.90;;;;;;4916598;29;20202;-61
2022/05/13 12:27:34;;;;;;;6.43;5.20;;;21.50;99.90;;;;;;4931137;29;20262;-62
2022/05/13 12:30:09;;;;;;;5.07;4.57;;;21.80;99.90;;;;;;4923552;29;20205;-62
2022/05/13 12:32:41;;;;;;;5.78;5.22;;;21.90;99.90;;;;;;4924611;29;20190;-61
2022/05/13 12:38:06;;;;;;;5.20;4.70;;;22.20;99.90;;;;;;4955164;28;20212;-61
2022/05/13 12:40:44;;;;;;;4.35;4.00;;;22.30;99.90;;;;;;4993789;28;20658;-62
2022/05/13 12:43:18;;;;;;;5.03;4.53;;;22.50;99.90;;;;;;4994086;28;20188;-62
2022/05/13 12:46:17;;;;;;;5.63;5.03;;;22.60;99.90;;;;;;4992943;28;20187;-62
2022/05/13 12:49:01;;;;;;;5.68;5.13;;;22.40;99.90;;;;;;4913919;29;20188;-62
2022/05/13 12:51:46;;;;;;;7.97;5.00;;;22.10;99.90;;;;;;4911179;29;20180;-61
2022/05/13 12:54:15;;;;;;;5.13;4.72;;;22.00;99.90;;;;;;4914773;29;20207;-62
2022/05/13 12:56:48;;;;;;;8.45;5.47;;;22.00;99.90;;;;;;4918574;29;20211;-62
2022/05/13 12:59:19;;;;;;;5.47;4.97;;;22.20;99.90;;;;;;4919957;29;20200;-61
2022/05/13 13:01:48;;;;;;;5.95;5.35;;;22.10;99.90;;;;;;4896169;29;20535;-57
2022/05/13 13:04:19;;;;;;;5.60;4.95;;;22.10;99.90;;;;;;4903060;29;20246;-62
2022/05/13 13:06:47;;;;;;;5.90;5.28;;;22.30;99.90;;;;;;4904678;29;20220;-62
2022/05/13 13:09:33;;;;;;;6.00;5.40;;;22.00;99.90;;;;;;4928524;29;20694;-61
2022/05/13 13:12:10;;;;;;;5.35;4.82;;;21.90;99.90;;;;;;4912309;29;20219;-61
2022/05/13 13:14:55;;;;;;;6.47;5.10;;;22.00;99.90;;;;;;4902351;29;20255;-62
2022/05/13 13:17:48;;;;;;;5.40;4.90;;;22.40;99.90;;;;;;4915126;29;20211;-62
2022/05/13 13:20:17;;;;;;;7.50;5.05;;;22.60;99.90;;;;;;4919815;29;20195;-61
2022/05/13 13:22:47;;;;;;;5.43;4.78;;;22.20;99.90;;;;;;4914526;29;20193;-62
2022/05/13 13:25:37;;;;;;;5.43;4.85;;;22.00;99.90;;;;;;4941673;28;20201;-64
2022/05/13 13:28:09;;;;;;;6.45;4.85;;;21.90;99.90;;;;;;4993818;28;20283;-64
2022/05/13 13:30:39;;;;;;;5.18;4.72;;;22.00;99.90;;;;;;4993268;28;20233;-63